Time;durP1;ratioP1;P1;durP2;ratioP2;P2;SDS_P1;SDS_P2;PMS_P1;PMS_P2;Temp;Humidity;BMP_temperature;BMP_pressure;BME280_temperature;BME280_humidity;BME280_pressure;Samples;Min_cycle;Max_cycle;Signal;HPM_P1;HPM_P2
2021/11/13 00:01:17;;;;;;;31.27;12.63;;;5.50;99.90;;;;;;5117247;28;20412;-80
2021/11/13 00:03:44;;;;;;;19.40;14.03;;;5.20;99.90;;;;;;5118528;28;20190;-80
2021/11/13 00:06:10;;;;;;;28.23;13.60;;;5.10;99.90;;;;;;5119217;28;20392;-80
2021/11/13 00:08:35;;;;;;;28.53;12.80;;;5.00;99.90;;;;;;5119057;28;20359;-80
2021/11/13 00:11:02;;;;;;;18.47;12.10;;;5.00;99.90;;;;;;5118101;28;20469;-81
2021/11/13 00:13:27;;;;;;;16.90;11.00;;;5.00;99.90;;;;;;5119250;28;20215;-80
2021/11/13 00:15:54;;;;;;;21.00;14.17;;;4.90;99.90;;;;;;5100299;28;20400;-80
2021/11/13 00:18:20;;;;;;;19.27;13.07;;;4.90;99.90;;;;;;5117861;28;20493;-80
2021/11/13 00:20:48;;;;;;;21.43;11.60;;;4.90;99.90;;;;;;5118182;28;20423;-80
2021/11/13 00:23:15;;;;;;;26.83;12.20;;;5.00;99.90;;;;;;5118321;28;20450;-80
2021/11/13 00:25:41;;;;;;;23.37;11.00;;;4.90;99.90;;;;;;5118198;28;20388;-80
2021/11/13 00:28:07;;;;;;;21.10;12.30;;;4.90;99.90;;;;;;5118258;28;20479;-80
2021/11/13 00:30:33;;;;;;;17.73;13.37;;;5.00;99.90;;;;;;5100071;28;20406;-81
2021/11/13 00:32:59;;;;;;;16.03;11.57;;;5.00;99.90;;;;;;5117981;28;20392;-80
2021/11/13 00:35:25;;;;;;;20.63;12.60;;;4.90;99.90;;;;;;5117338;28;20177;-80
2021/11/13 00:37:51;;;;;;;24.00;11.40;;;5.00;99.90;;;;;;5084434;28;20378;-80
2021/11/13 00:40:19;;;;;;;21.87;10.80;;;4.80;99.90;;;;;;5100426;28;20469;-80
2021/11/13 00:42:47;;;;;;;14.70;9.27;;;4.80;99.90;;;;;;5118229;28;20192;-80
2021/11/13 00:45:13;;;;;;;15.90;11.10;;;4.80;99.90;;;;;;5118292;28;20432;-80
2021/11/13 00:47:40;;;;;;;12.13;7.67;;;5.10;99.90;;;;;;5118523;28;20382;-80
2021/11/13 00:50:07;;;;;;;22.63;11.50;;;4.90;99.90;;;;;;5117338;28;20760;-81
2021/11/13 00:52:34;;;;;;;18.47;11.77;;;5.00;99.90;;;;;;5117103;28;20366;-81
2021/11/13 00:54:59;;;;;;;21.80;12.20;;;4.90;99.90;;;;;;5117748;28;20715;-80
2021/11/13 00:57:25;;;;;;;28.20;12.10;;;5.00;99.90;;;;;;5098708;28;20408;-81
2021/11/13 00:59:52;;;;;;;19.50;11.20;;;4.90;99.90;;;;;;5116588;28;20186;-81
2021/11/13 01:02:18;;;;;;;23.67;11.87;;;4.90;99.90;;;;;;5116784;28;20162;-80
2021/11/13 01:04:44;;;;;;;18.83;11.07;;;5.00;99.90;;;;;;5098100;28;20392;-81
2021/11/13 01:07:10;;;;;;;27.03;15.30;;;5.00;99.90;;;;;;5117345;28;20163;-81
2021/11/13 01:09:36;;;;;;;21.70;13.00;;;5.10;99.90;;;;;;5118185;28;20226;-81
2021/11/13 01:12:03;;;;;;;19.23;10.60;;;5.10;99.90;;;;;;5117647;28;20169;-81
2021/11/13 01:14:29;;;;;;;24.87;13.33;;;5.00;99.90;;;;;;5116304;28;20375;-81
2021/11/13 01:16:55;;;;;;;22.73;13.70;;;5.20;99.90;;;;;;5116256;28;20423;-81
2021/11/13 01:19:22;;;;;;;30.17;13.90;;;5.30;99.90;;;;;;5098803;28;20379;-81
2021/11/13 01:21:49;;;;;;;22.77;15.10;;;5.40;99.90;;;;;;5117335;28;20447;-81
2021/11/13 01:24:15;;;;;;;21.37;9.67;;;5.20;99.90;;;;;;5117656;28;20475;-79
2021/11/13 01:26:41;;;;;;;25.90;11.30;;;5.10;99.90;;;;;;5117886;28;20860;-81
2021/11/13 01:29:06;;;;;;;19.60;11.10;;;5.30;99.90;;;;;;5098538;28;20394;-81
2021/11/13 01:31:32;;;;;;;18.77;10.43;;;5.40;99.90;;;;;;5098332;28;20165;-81
2021/11/13 01:33:58;;;;;;;19.03;11.97;;;5.10;99.90;;;;;;5120710;28;20154;-80
2021/11/13 01:36:25;;;;;;;25.80;11.00;;;5.00;99.90;;;;;;5106378;28;20158;-81
2021/11/13 01:38:51;;;;;;;26.30;11.03;;;4.80;99.90;;;;;;5125003;28;20393;-80
2021/11/13 01:41:17;;;;;;;33.17;14.03;;;4.90;99.90;;;;;;5110208;28;20504;-81
2021/11/13 01:43:43;;;;;;;22.30;12.00;;;5.00;99.90;;;;;;5097754;28;20415;-81
2021/11/13 01:46:11;;;;;;;23.20;12.90;;;5.00;99.90;;;;;;5094891;28;20404;-81
2021/11/13 01:48:37;;;;;;;19.37;12.70;;;5.10;99.90;;;;;;5095474;28;20163;-81
2021/11/13 01:51:29;;;;;;;16.50;11.40;;;5.20;99.90;;;;;;5094980;28;20404;-80
2021/11/13 01:54:04;;;;;;;18.20;11.47;;;5.20;99.90;;;;;;5076795;28;20428;-81
2021/11/13 01:56:29;;;;;;;21.37;11.27;;;5.10;99.90;;;;;;5095965;28;20468;-81
2021/11/13 01:58:57;;;;;;;23.53;13.43;;;5.10;99.90;;;;;;5077466;28;20446;-81
2021/11/13 02:01:24;;;;;;;21.20;11.57;;;4.90;99.90;;;;;;5095721;28;20174;-81
2021/11/13 02:03:51;;;;;;;25.73;12.07;;;4.90;99.90;;;;;;5077876;28;20423;-81
2021/11/13 02:06:18;;;;;;;14.07;10.57;;;4.90;99.90;;;;;;5096040;28;20371;-81
2021/11/13 02:08:45;;;;;;;18.50;10.37;;;4.80;99.90;;;;;;5096575;28;20746;-81
2021/11/13 02:11:13;;;;;;;21.87;12.37;;;4.80;99.90;;;;;;5100250;28;20407;-80
2021/11/13 02:13:40;;;;;;;17.87;11.07;;;4.70;99.90;;;;;;5100029;28;20396;-81
2021/11/13 02:16:08;;;;;;;17.47;11.47;;;4.90;99.90;;;;;;5100045;28;20397;-81
2021/11/13 02:18:35;;;;;;;27.10;14.00;;;4.90;99.90;;;;;;5099553;28;20397;-80
2021/11/13 02:21:01;;;;;;;24.13;12.47;;;5.00;99.90;;;;;;5099951;28;20402;-81
2021/11/13 02:23:27;;;;;;;24.30;13.80;;;4.90;99.90;;;;;;5099980;28;20901;-81
2021/11/13 02:25:53;;;;;;;24.27;11.53;;;4.70;99.90;;;;;;5079873;28;20473;-81
2021/11/13 02:28:22;;;;;;;22.70;12.57;;;4.80;99.90;;;;;;5099512;28;20217;-81
2021/11/13 02:30:50;;;;;;;14.30;9.77;;;5.00;99.90;;;;;;5100345;28;20385;-81
2021/11/13 02:33:16;;;;;;;17.77;11.00;;;4.90;99.90;;;;;;5101719;28;20708;-81
2021/11/13 02:35:44;;;;;;;22.47;12.50;;;5.00;99.90;;;;;;5113444;28;20371;-78
2021/11/13 02:38:14;;;;;;;24.73;12.60;;;4.90;99.90;;;;;;5114044;28;20360;-78
2021/11/13 02:40:43;;;;;;;20.30;10.83;;;5.10;99.90;;;;;;5122230;28;20471;-79
2021/11/13 02:43:09;;;;;;;17.40;10.50;;;5.00;99.90;;;;;;5115428;28;20824;-81
2021/11/13 02:45:35;;;;;;;15.47;9.17;;;4.90;99.90;;;;;;5132849;28;20393;-79
2021/11/13 02:48:03;;;;;;;19.60;10.47;;;5.10;99.90;;;;;;5134872;28;20388;-79
2021/11/13 02:50:30;;;;;;;22.73;14.10;;;5.10;99.90;;;;;;5135195;28;20385;-78
2021/11/13 02:52:58;;;;;;;18.93;11.97;;;4.90;99.90;;;;;;5135494;28;20158;-79
2021/11/13 02:55:25;;;;;;;16.33;10.50;;;5.00;99.90;;;;;;5134894;28;20371;-79
2021/11/13 02:57:52;;;;;;;15.43;9.13;;;5.10;99.90;;;;;;5134941;28;20403;-80
2021/11/13 03:00:21;;;;;;;13.47;8.97;;;5.20;99.90;;;;;;5133708;28;20838;-79
2021/11/13 03:02:47;;;;;;;11.20;8.07;;;4.90;99.90;;;;;;5135804;28;20410;-79
2021/11/13 03:05:23;;;;;;;13.93;10.17;;;5.00;99.90;;;;;;5134705;28;20742;-79
2021/11/13 03:07:50;;;;;;;19.73;11.30;;;4.90;99.90;;;;;;5135100;28;20396;-81
2021/11/13 03:10:16;;;;;;;11.83;7.27;;;4.70;99.90;;;;;;5134758;28;20395;-78
2021/11/13 03:12:45;;;;;;;14.50;8.23;;;4.70;99.90;;;;;;5133636;28;20407;-79
2021/11/13 03:15:14;;;;;;;15.13;9.00;;;4.80;99.90;;;;;;5133535;28;20643;-79
2021/11/13 03:17:41;;;;;;;14.13;9.47;;;4.80;99.90;;;;;;5121752;28;20407;-80
2021/11/13 03:20:10;;;;;;;14.83;8.77;;;4.70;99.90;;;;;;5118492;28;20474;-80
2021/11/13 03:22:38;;;;;;;16.90;8.93;;;4.70;99.90;;;;;;5117910;28;20434;-80
2021/11/13 03:25:07;;;;;;;21.77;10.90;;;4.80;99.90;;;;;;5119232;28;20371;-80
2021/11/13 03:27:34;;;;;;;18.67;9.77;;;4.70;99.90;;;;;;5118223;28;20371;-80
2021/11/13 03:30:01;;;;;;;15.00;9.60;;;4.60;99.90;;;;;;5117691;28;20457;-80
2021/11/13 03:32:27;;;;;;;18.27;10.20;;;4.70;99.90;;;;;;5117939;28;20745;-79
2021/11/13 03:34:53;;;;;;;17.33;9.90;;;4.80;99.90;;;;;;5118305;28;20889;-80
2021/11/13 03:37:19;;;;;;;19.27;11.83;;;4.70;99.90;;;;;;5117501;28;20771;-80
2021/11/13 03:39:45;;;;;;;15.30;9.87;;;4.70;99.90;;;;;;5117879;28;20162;-80
2021/11/13 03:42:10;;;;;;;19.40;9.70;;;4.70;99.90;;;;;;5117343;28;20221;-80
2021/11/13 03:44:36;;;;;;;16.80;10.13;;;4.70;99.90;;;;;;5119410;28;20201;-80
2021/11/13 03:47:02;;;;;;;16.60;10.60;;;4.70;99.90;;;;;;5119639;28;20211;-78
2021/11/13 03:49:29;;;;;;;11.60;9.40;;;4.60;99.90;;;;;;5119320;28;20204;-80
2021/11/13 03:51:56;;;;;;;12.80;9.43;;;4.60;99.90;;;;;;5117010;28;20947;-79
2021/11/13 03:54:22;;;;;;;11.37;8.17;;;4.70;99.90;;;;;;5117716;28;20415;-79
2021/11/13 03:56:47;;;;;;;14.17;10.20;;;4.60;99.90;;;;;;5117465;28;20507;-80
2021/11/13 03:59:13;;;;;;;13.10;8.47;;;4.70;99.90;;;;;;5117487;28;20181;-81
2021/11/13 04:01:40;;;;;;;9.23;7.20;;;4.80;99.90;;;;;;5117139;28;20170;-81
2021/11/13 04:04:06;;;;;;;25.07;10.50;;;4.90;99.90;;;;;;5117281;28;20930;-79
2021/11/13 04:06:31;;;;;;;12.13;9.03;;;4.90;99.90;;;;;;5117427;28;20436;-80
2021/11/13 04:08:57;;;;;;;9.90;7.23;;;4.70;99.90;;;;;;5117606;28;20609;-80
2021/11/13 04:11:23;;;;;;;13.53;7.97;;;4.70;99.90;;;;;;5117918;28;20189;-80
2021/11/13 04:13:49;;;;;;;16.50;9.30;;;4.60;99.90;;;;;;5117635;28;20281;-79
2021/11/13 04:16:15;;;;;;;16.57;10.07;;;4.50;99.90;;;;;;5118335;28;20151;-81
2021/11/13 04:18:41;;;;;;;12.87;8.97;;;4.50;99.90;;;;;;5116693;28;20846;-79
2021/11/13 04:21:06;;;;;;;14.63;6.70;;;4.70;99.90;;;;;;5097937;28;20221;-80
2021/11/13 04:23:33;;;;;;;14.37;9.23;;;4.70;99.90;;;;;;5117584;28;20520;-80
2021/11/13 04:25:59;;;;;;;15.60;9.97;;;4.80;99.90;;;;;;5098790;28;20166;-79
2021/11/13 04:28:25;;;;;;;13.20;8.63;;;4.70;99.90;;;;;;5098627;28;20366;-79
2021/11/13 04:30:51;;;;;;;18.67;8.33;;;4.60;99.90;;;;;;5121066;28;20158;-80
2021/11/13 04:33:18;;;;;;;12.57;8.60;;;4.60;99.90;;;;;;5116831;28;20384;-80
2021/11/13 04:35:59;;;;;;;14.20;9.00;;;4.50;99.90;;;;;;5116867;28;20802;-80
2021/11/13 04:38:25;;;;;;;13.77;9.50;;;4.50;99.90;;;;;;5116974;28;20373;-79
2021/11/13 04:40:51;;;;;;;10.13;7.20;;;4.50;99.90;;;;;;5117134;28;20456;-80
2021/11/13 04:43:16;;;;;;;10.00;8.07;;;4.50;99.90;;;;;;5116118;28;20185;-80
2021/11/13 04:45:42;;;;;;;15.50;7.77;;;4.40;99.90;;;;;;5098438;28;20387;-79
2021/11/13 04:48:08;;;;;;;13.17;7.90;;;4.50;99.90;;;;;;5113819;28;20177;-81
2021/11/13 04:50:36;;;;;;;15.53;8.40;;;4.60;99.90;;;;;;5098577;28;20513;-81
2021/11/13 04:53:03;;;;;;;12.83;8.47;;;4.60;99.90;;;;;;5116396;28;20258;-81
2021/11/13 04:55:30;;;;;;;14.17;8.37;;;4.70;99.90;;;;;;5117025;28;20457;-81
2021/11/13 04:57:56;;;;;;;14.60;7.37;;;4.60;99.90;;;;;;5098365;28;20464;-81
2021/11/13 05:00:25;;;;;;;18.53;9.70;;;4.50;99.90;;;;;;5116705;28;20442;-81
2021/11/13 05:02:52;;;;;;;13.40;8.57;;;4.40;99.90;;;;;;5117028;28;20410;-81
2021/11/13 05:05:18;;;;;;;10.90;7.77;;;4.40;99.90;;;;;;5116797;28;20840;-81
2021/11/13 05:07:44;;;;;;;9.47;6.70;;;4.50;99.90;;;;;;5116908;28;20479;-81
2021/11/13 05:10:11;;;;;;;16.37;8.37;;;4.60;99.90;;;;;;5114359;28;20407;-78
2021/11/13 05:12:39;;;;;;;12.00;8.17;;;4.60;99.90;;;;;;5135984;28;20396;-79
2021/11/13 05:15:07;;;;;;;15.90;9.60;;;4.70;99.90;;;;;;5136824;28;20412;-80
2021/11/13 05:17:33;;;;;;;13.13;8.30;;;4.70;99.90;;;;;;5136465;28;20416;-81
2021/11/13 05:20:01;;;;;;;11.47;7.70;;;4.80;99.90;;;;;;5119663;28;20416;-81
2021/11/13 05:22:27;;;;;;;11.80;6.13;;;4.80;99.90;;;;;;5116687;28;20576;-81
2021/11/13 05:24:54;;;;;;;12.57;7.40;;;4.50;99.90;;;;;;5117252;28;20503;-80
2021/11/13 05:27:21;;;;;;;13.07;6.37;;;4.60;99.90;;;;;;5116727;28;20457;-81
2021/11/13 05:29:47;;;;;;;17.67;8.07;;;4.40;99.90;;;;;;5115992;28;20245;-81
2021/11/13 05:32:13;;;;;;;13.77;9.60;;;4.50;99.90;;;;;;5116211;28;20891;-80
2021/11/13 05:34:38;;;;;;;10.33;6.97;;;4.70;99.90;;;;;;5117323;28;20194;-80
2021/11/13 05:37:04;;;;;;;13.63;7.97;;;4.80;99.90;;;;;;5116911;28;20252;-81
2021/11/13 05:39:30;;;;;;;11.03;7.20;;;4.70;99.90;;;;;;5119108;28;20216;-79
2021/11/13 05:41:56;;;;;;;12.30;7.40;;;4.50;99.90;;;;;;5097735;28;20232;-80
2021/11/13 05:44:22;;;;;;;9.43;7.43;;;4.60;99.90;;;;;;5134509;28;20182;-80
2021/11/13 05:46:52;;;;;;;10.43;6.80;;;4.50;99.90;;;;;;5126637;28;20174;-81
2021/11/13 05:49:18;;;;;;;23.50;7.90;;;4.60;99.90;;;;;;5116010;28;20618;-80
2021/11/13 05:51:44;;;;;;;12.80;8.20;;;4.70;99.90;;;;;;5115748;28;20388;-81
2021/11/13 05:54:10;;;;;;;11.03;8.20;;;4.70;99.90;;;;;;5096784;28;20200;-80
2021/11/13 05:56:35;;;;;;;10.50;6.83;;;4.80;99.90;;;;;;5115404;28;20197;-80
2021/11/13 05:59:02;;;;;;;14.03;10.63;;;4.60;99.90;;;;;;5115237;28;20170;-81
2021/11/13 06:01:27;;;;;;;8.00;7.20;;;4.70;99.90;;;;;;5116200;28;20260;-81
2021/11/13 06:03:53;;;;;;;13.90;7.77;;;4.50;99.90;;;;;;5115394;28;20888;-80
2021/11/13 06:06:19;;;;;;;9.50;6.77;;;4.50;99.90;;;;;;5114953;28;20173;-80
2021/11/13 06:08:45;;;;;;;11.47;8.87;;;4.60;99.90;;;;;;5114971;28;20414;-80
2021/11/13 06:11:11;;;;;;;10.57;7.17;;;4.80;99.90;;;;;;5115685;28;20166;-78
2021/11/13 06:13:37;;;;;;;13.17;7.80;;;4.80;99.90;;;;;;5115173;28;20169;-80
2021/11/13 06:16:03;;;;;;;10.67;7.77;;;4.60;99.90;;;;;;5101869;28;20163;-79
2021/11/13 06:18:32;;;;;;;8.13;6.70;;;4.40;99.90;;;;;;5115442;28;20423;-80
2021/11/13 06:20:58;;;;;;;8.37;7.57;;;4.60;99.90;;;;;;5130700;28;20421;-80
2021/11/13 06:23:24;;;;;;;11.47;8.10;;;4.60;99.90;;;;;;5113363;28;20442;-81
2021/11/13 06:25:50;;;;;;;11.03;9.13;;;4.50;99.90;;;;;;5129992;28;20370;-80
2021/11/13 06:28:15;;;;;;;10.90;7.27;;;4.40;99.90;;;;;;5130574;28;20427;-81
2021/11/13 06:30:41;;;;;;;7.70;6.33;;;4.50;99.90;;;;;;5130974;28;20189;-80
2021/11/13 06:33:07;;;;;;;7.33;6.47;;;4.60;99.90;;;;;;5112226;28;20166;-81
2021/11/13 06:35:35;;;;;;;9.90;7.53;;;4.60;99.90;;;;;;5111569;28;20165;-80
2021/11/13 06:38:02;;;;;;;7.83;7.07;;;4.50;99.90;;;;;;5129332;28;20466;-79
2021/11/13 06:40:27;;;;;;;8.00;5.67;;;4.40;99.90;;;;;;5131262;28;20451;-80
2021/11/13 06:42:53;;;;;;;14.50;6.80;;;4.40;99.90;;;;;;5130865;28;20431;-80
2021/11/13 06:45:20;;;;;;;9.07;7.33;;;4.40;99.90;;;;;;5131162;28;20150;-80
2021/11/13 06:47:46;;;;;;;9.50;7.07;;;4.40;99.90;;;;;;5131875;28;20164;-80
2021/11/13 06:50:13;;;;;;;14.53;8.07;;;4.40;99.90;;;;;;5131544;28;20425;-79
2021/11/13 06:52:39;;;;;;;7.07;6.37;;;4.60;99.90;;;;;;5131412;28;20400;-80
2021/11/13 06:55:06;;;;;;;9.87;6.50;;;4.80;99.90;;;;;;5132126;28;20455;-80
2021/11/13 06:57:34;;;;;;;13.27;6.80;;;4.90;99.90;;;;;;5135334;28;20416;-80
2021/11/13 07:00:00;;;;;;;9.40;6.60;;;4.70;99.90;;;;;;5138504;28;20399;-79
2021/11/13 07:02:26;;;;;;;12.13;8.00;;;4.70;99.90;;;;;;5118756;28;20425;-79
2021/11/13 07:04:53;;;;;;;11.83;8.23;;;4.70;99.90;;;;;;5137322;28;20166;-79
2021/11/13 07:07:19;;;;;;;9.63;8.43;;;4.80;99.90;;;;;;5136643;28;20387;-80
2021/11/13 07:09:47;;;;;;;9.73;7.30;;;4.80;99.90;;;;;;5114509;28;20398;-79
2021/11/13 07:12:18;;;;;;;7.00;6.13;;;4.60;99.90;;;;;;5057738;28;20437;-79
2021/11/13 07:14:48;;;;;;;13.53;8.40;;;4.60;99.90;;;;;;5077799;28;20482;-79
2021/11/13 07:17:20;;;;;;;11.17;8.07;;;4.60;99.90;;;;;;5066846;28;20397;-78
2021/11/13 07:19:49;;;;;;;11.17;7.37;;;4.70;99.90;;;;;;5006955;28;20405;-79
2021/11/13 07:22:17;;;;;;;7.00;6.30;;;4.50;99.90;;;;;;5013567;28;20512;-76
2021/11/13 07:24:45;;;;;;;8.40;6.40;;;4.60;99.90;;;;;;4994338;28;20476;-78
2021/11/13 07:27:12;;;;;;;11.50;7.93;;;4.50;99.90;;;;;;4953252;29;20450;-77
2021/11/13 07:29:57;;;;;;;6.87;5.47;;;4.50;99.90;;;;;;4937068;29;20496;-79
2021/11/13 07:32:32;;;;;;;14.27;8.13;;;4.50;99.90;;;;;;4937667;29;20442;-80
2021/11/13 07:34:58;;;;;;;11.90;7.90;;;4.70;99.90;;;;;;4932208;29;20428;-81
2021/11/13 07:37:25;;;;;;;9.80;8.60;;;4.60;99.90;;;;;;4956225;29;20905;-79
2021/11/13 07:39:52;;;;;;;13.83;7.70;;;4.60;99.90;;;;;;4955579;29;20473;-81
2021/11/13 07:42:18;;;;;;;11.57;8.00;;;4.50;99.90;;;;;;4958078;28;20463;-80
2021/11/13 07:44:45;;;;;;;16.60;8.97;;;4.50;99.90;;;;;;4959319;28;20465;-78
2021/11/13 07:47:10;;;;;;;7.60;5.87;;;4.60;99.90;;;;;;4976036;28;20430;-79
2021/11/13 07:49:36;;;;;;;16.10;8.00;;;4.50;99.90;;;;;;4975887;28;20933;-80
2021/11/13 07:52:04;;;;;;;13.63;8.60;;;4.50;99.90;;;;;;4960100;28;20191;-80
2021/11/13 07:54:30;;;;;;;10.67;8.27;;;4.70;99.90;;;;;;4976521;28;20170;-80
2021/11/13 07:56:55;;;;;;;13.20;8.43;;;4.60;99.90;;;;;;5013621;28;20910;-80
2021/11/13 07:59:21;;;;;;;12.57;7.47;;;4.60;99.90;;;;;;5098928;28;20527;-80
2021/11/13 08:01:47;;;;;;;20.70;9.10;;;4.60;99.90;;;;;;5099399;28;20546;-80
2021/11/13 08:04:16;;;;;;;10.33;7.47;;;4.60;99.90;;;;;;5081411;28;20684;-79
2021/11/13 08:06:42;;;;;;;8.77;7.40;;;4.50;99.90;;;;;;5099733;28;20833;-81
2021/11/13 08:09:08;;;;;;;15.17;7.57;;;4.40;99.90;;;;;;5101577;28;20372;-81
2021/11/13 08:11:34;;;;;;;9.33;6.20;;;4.50;99.90;;;;;;5106531;28;20162;-81
2021/11/13 08:14:00;;;;;;;10.67;8.10;;;4.60;99.90;;;;;;5108133;28;20410;-81
2021/11/13 08:16:27;;;;;;;10.03;7.10;;;4.60;99.90;;;;;;5108881;28;20710;-80
2021/11/13 08:18:53;;;;;;;8.47;6.43;;;4.80;99.90;;;;;;5109476;28;20717;-80
2021/11/13 08:21:21;;;;;;;10.93;7.60;;;4.70;99.90;;;;;;5107323;28;20495;-80
2021/11/13 08:23:47;;;;;;;14.63;9.17;;;4.80;99.90;;;;;;5107969;28;20499;-80
2021/11/13 08:26:13;;;;;;;10.67;8.73;;;4.80;99.90;;;;;;5110758;28;20392;-79
2021/11/13 08:28:39;;;;;;;13.77;7.40;;;4.90;99.90;;;;;;5112919;28;20420;-79
2021/11/13 08:31:05;;;;;;;11.17;7.90;;;4.90;99.90;;;;;;5112236;28;20381;-80
2021/11/13 08:33:31;;;;;;;9.33;6.53;;;5.00;99.90;;;;;;5111892;28;20163;-80
2021/11/13 08:35:57;;;;;;;9.33;6.40;;;5.00;99.90;;;;;;5093775;28;20542;-80
2021/11/13 08:38:23;;;;;;;10.87;7.57;;;5.00;99.90;;;;;;5112070;28;20401;-81
2021/11/13 08:40:53;;;;;;;6.40;5.80;;;5.20;99.90;;;;;;5118908;28;20821;-80
2021/11/13 08:43:20;;;;;;;6.80;5.90;;;4.90;99.90;;;;;;5113642;28;20417;-79
2021/11/13 08:45:48;;;;;;;10.77;7.57;;;4.90;99.90;;;;;;5133978;28;20363;-79
2021/11/13 08:48:14;;;;;;;6.97;5.43;;;4.90;99.90;;;;;;5099404;28;20403;-79
2021/11/13 08:50:43;;;;;;;8.03;5.97;;;4.80;99.90;;;;;;5115420;28;20381;-78
2021/11/13 08:53:10;;;;;;;9.10;6.30;;;5.10;99.90;;;;;;5109415;28;20377;-79
2021/11/13 08:55:40;;;;;;;6.97;6.27;;;5.10;99.90;;;;;;5119950;28;20375;-79
2021/11/13 08:58:09;;;;;;;13.43;6.10;;;5.20;99.90;;;;;;5059331;28;20406;-80
2021/11/13 09:00:47;;;;;;;7.77;6.10;;;5.20;99.90;;;;;;5034093;28;20459;-80
2021/11/13 09:03:29;;;;;;;8.60;6.87;;;5.20;99.90;;;;;;5036954;28;20546;-80
2021/11/13 09:05:59;;;;;;;15.73;7.03;;;5.20;99.90;;;;;;5022842;28;20401;-81
2021/11/13 09:08:25;;;;;;;7.03;6.40;;;5.50;99.90;;;;;;5054176;28;20507;-80
2021/11/13 09:10:53;;;;;;;13.73;7.47;;;5.50;99.90;;;;;;5037081;28;20382;-80
2021/11/13 09:13:23;;;;;;;7.53;6.37;;;5.70;99.90;;;;;;5037448;28;20658;-80
2021/11/13 09:15:49;;;;;;;8.83;6.50;;;5.60;99.90;;;;;;5053633;28;20408;-81
2021/11/13 09:18:17;;;;;;;9.60;6.43;;;5.70;99.90;;;;;;5036731;28;20480;-80
2021/11/13 09:20:44;;;;;;;8.23;6.90;;;5.80;99.90;;;;;;5037331;28;20418;-80
2021/11/13 09:23:13;;;;;;;9.03;6.73;;;6.10;99.90;;;;;;5036836;28;20516;-81
2021/11/13 09:25:42;;;;;;;11.77;7.00;;;5.90;99.90;;;;;;5054044;28;20406;-80
2021/11/13 09:28:08;;;;;;;12.03;7.70;;;6.00;99.90;;;;;;5044986;28;20396;-80
2021/11/13 09:30:36;;;;;;;9.93;7.00;;;5.90;99.90;;;;;;5116293;28;20827;-78
2021/11/13 09:33:03;;;;;;;10.20;6.27;;;5.90;99.90;;;;;;5117798;28;20373;-79
2021/11/13 09:35:30;;;;;;;10.93;7.83;;;5.90;99.90;;;;;;5098268;28;20371;-81
2021/11/13 09:37:58;;;;;;;10.63;7.00;;;5.90;99.90;;;;;;5116644;28;20367;-79
2021/11/13 09:40:26;;;;;;;9.33;7.43;;;5.80;99.90;;;;;;5117706;28;20452;-81
2021/11/13 09:42:55;;;;;;;9.50;6.90;;;6.20;99.90;;;;;;5118147;28;20450;-80
2021/11/13 09:45:21;;;;;;;7.93;5.53;;;6.20;99.90;;;;;;5120414;28;20388;-78
2021/11/13 09:47:51;;;;;;;11.87;6.80;;;6.10;99.90;;;;;;5120711;28;20370;-80
2021/11/13 09:50:19;;;;;;;10.83;6.60;;;6.00;99.90;;;;;;5099726;28;20369;-81
2021/11/13 09:52:48;;;;;;;8.17;7.37;;;5.70;99.90;;;;;;5099469;28;20371;-80
2021/11/13 09:55:16;;;;;;;8.40;6.80;;;5.70;99.90;;;;;;5100425;28;20392;-81
2021/11/13 09:57:42;;;;;;;10.13;7.70;;;6.00;99.90;;;;;;5117237;28;20394;-80
2021/11/13 10:00:12;;;;;;;12.40;8.13;;;6.00;99.90;;;;;;5116069;28;20457;-81
2021/11/13 10:02:39;;;;;;;10.23;7.30;;;6.00;99.90;;;;;;5116237;28;20482;-81
2021/11/13 10:05:05;;;;;;;8.13;6.83;;;6.10;99.90;;;;;;5098925;28;20422;-80
2021/11/13 10:07:33;;;;;;;10.43;7.10;;;6.00;99.90;;;;;;5118079;28;20770;-81
2021/11/13 10:10:00;;;;;;;9.53;7.80;;;6.10;99.90;;;;;;5100438;28;20847;-81
2021/11/13 10:12:40;;;;;;;8.90;6.80;;;5.90;99.90;;;;;;5119014;28;20367;-80
2021/11/13 10:15:34;;;;;;;11.30;7.47;;;6.20;99.90;;;;;;5132132;28;20388;-82
2021/11/13 10:18:17;;;;;;;10.67;8.00;;;6.20;99.90;;;;;;5132523;28;20464;-81
2021/11/13 10:20:47;;;;;;;10.57;8.30;;;6.20;99.90;;;;;;5132048;28;20370;-80
2021/11/13 10:23:35;;;;;;;9.53;6.97;;;6.10;99.90;;;;;;5072374;28;20436;-81
2021/11/13 10:26:05;;;;;;;6.83;5.83;;;6.00;99.90;;;;;;5099336;28;20474;-80
2021/11/13 10:28:32;;;;;;;10.97;7.50;;;6.20;99.90;;;;;;5099862;28;20377;-80
2021/11/13 10:31:09;;;;;;;9.60;7.30;;;6.10;99.90;;;;;;5120734;28;20413;-80
2021/11/13 10:33:35;;;;;;;11.17;7.67;;;6.10;99.90;;;;;;5104250;28;20473;-80
2021/11/13 10:36:02;;;;;;;13.27;9.20;;;6.10;99.90;;;;;;5122103;28;20396;-80
2021/11/13 10:38:32;;;;;;;8.87;6.90;;;6.10;99.90;;;;;;5122618;28;20532;-80
2021/11/13 10:41:01;;;;;;;12.70;9.40;;;6.10;99.90;;;;;;5095300;28;20459;-80
2021/11/13 10:43:35;;;;;;;9.40;6.97;;;6.10;99.90;;;;;;5100638;28;20879;-80
2021/11/13 10:46:06;;;;;;;8.53;7.63;;;6.20;99.90;;;;;;5101389;28;20436;-79
2021/11/13 10:48:36;;;;;;;11.33;8.53;;;6.20;99.90;;;;;;5048552;28;20422;-80
2021/11/13 10:51:06;;;;;;;13.40;8.80;;;6.10;99.90;;;;;;4990787;28;20421;-80
2021/11/13 10:53:35;;;;;;;8.20;6.70;;;6.30;99.90;;;;;;4989472;28;20417;-79
2021/11/13 10:56:14;;;;;;;10.43;7.80;;;6.20;99.90;;;;;;4930969;29;20392;-79
2021/11/13 10:58:54;;;;;;;10.50;7.53;;;6.20;99.90;;;;;;4931541;29;20583;-79
2021/11/13 11:01:32;;;;;;;10.90;8.50;;;6.40;99.90;;;;;;4916236;29;20411;-79
2021/11/13 11:04:07;;;;;;;13.83;9.10;;;6.30;99.90;;;;;;4884757;29;20467;-79
2021/11/13 11:06:38;;;;;;;10.30;6.57;;;6.20;99.90;;;;;;4933024;29;20547;-80
2021/11/13 11:09:26;;;;;;;11.93;7.60;;;6.20;99.90;;;;;;4933379;29;20417;-78
2021/11/13 11:11:56;;;;;;;12.87;9.27;;;6.30;99.90;;;;;;4919340;29;20421;-80
2021/11/13 11:14:26;;;;;;;10.40;7.67;;;6.40;99.90;;;;;;4934448;29;20468;-79
2021/11/13 11:16:57;;;;;;;8.73;6.43;;;6.30;99.90;;;;;;4903486;29;20860;-81
2021/11/13 11:19:26;;;;;;;12.03;8.80;;;6.10;99.90;;;;;;4960580;28;20427;-79
2021/11/13 11:22:01;;;;;;;12.53;6.97;;;6.30;99.90;;;;;;4976601;28;20453;-78
2021/11/13 11:24:37;;;;;;;15.50;8.00;;;6.20;99.90;;;;;;4991857;28;20421;-80
2021/11/13 11:27:08;;;;;;;11.10;7.93;;;6.30;99.90;;;;;;4960527;28;20468;-80
2021/11/13 11:29:43;;;;;;;11.00;8.70;;;6.30;99.90;;;;;;5089470;28;20929;-79
2021/11/13 11:32:11;;;;;;;6.00;5.40;;;6.20;99.90;;;;;;5043993;28;20413;-79
2021/11/13 11:34:40;;;;;;;8.00;6.93;;;6.30;99.90;;;;;;5090055;28;20404;-80
2021/11/13 11:37:18;;;;;;;10.30;7.37;;;6.50;99.90;;;;;;5089018;28;20453;-79
2021/11/13 11:39:47;;;;;;;12.70;7.80;;;6.60;99.90;;;;;;5090886;28;20399;-80
2021/11/13 11:42:14;;;;;;;12.20;7.10;;;6.50;99.90;;;;;;5089537;28;20428;-80
2021/11/13 11:44:41;;;;;;;8.93;7.67;;;6.40;99.90;;;;;;5091592;28;20448;-80
2021/11/13 11:47:11;;;;;;;7.73;6.17;;;6.60;99.90;;;;;;5109838;28;20417;-80
2021/11/13 11:49:42;;;;;;;8.07;6.93;;;6.50;99.90;;;;;;5097873;28;20385;-79
2021/11/13 11:52:09;;;;;;;9.23;7.53;;;6.60;99.90;;;;;;5114915;28;20359;-80
2021/11/13 11:54:35;;;;;;;12.20;8.43;;;6.50;99.90;;;;;;5131584;28;20392;-79
2021/11/13 11:57:01;;;;;;;10.73;7.77;;;6.70;99.90;;;;;;5133335;28;20377;-79
2021/11/13 11:59:29;;;;;;;10.17;6.87;;;6.60;99.90;;;;;;5114713;28;20400;-79
2021/11/13 12:02:22;;;;;;;12.53;8.73;;;6.60;99.90;;;;;;5051165;28;20423;-79
2021/11/13 12:04:50;;;;;;;9.00;7.30;;;6.60;99.90;;;;;;5068011;28;20448;-80
2021/11/13 12:07:34;;;;;;;13.77;8.40;;;6.60;99.90;;;;;;5019054;28;20494;-81
2021/11/13 12:10:08;;;;;;;11.50;7.77;;;6.60;99.90;;;;;;5070044;28;20398;-80
2021/11/13 12:12:40;;;;;;;10.63;6.87;;;6.70;99.90;;;;;;5038479;28;20513;-78
2021/11/13 12:15:15;;;;;;;7.73;5.67;;;6.70;99.90;;;;;;5071308;28;20406;-79
2021/11/13 12:17:41;;;;;;;8.00;7.20;;;6.40;99.90;;;;;;5030061;28;20412;-80
2021/11/13 12:20:29;;;;;;;11.20;8.20;;;6.50;99.90;;;;;;5023871;28;20425;-77
2021/11/13 12:23:03;;;;;;;11.20;8.47;;;6.60;99.90;;;;;;4986953;28;20440;-80
2021/11/13 12:25:32;;;;;;;9.00;7.00;;;6.70;99.90;;;;;;4990806;28;20493;-80
2021/11/13 12:28:16;;;;;;;7.20;6.50;;;6.70;99.90;;;;;;4995576;28;20417;-79
2021/11/13 12:30:49;;;;;;;10.20;7.20;;;6.60;99.90;;;;;;5012256;28;20390;-81
2021/11/13 12:33:41;;;;;;;9.47;7.30;;;6.60;99.90;;;;;;5023445;28;20791;-81
2021/11/13 12:36:11;;;;;;;10.43;7.43;;;6.70;99.90;;;;;;5040134;28;20407;-80
2021/11/13 12:38:52;;;;;;;12.27;8.93;;;6.60;99.90;;;;;;5047211;28;20556;-83
2021/11/13 12:41:22;;;;;;;9.43;7.07;;;6.70;99.90;;;;;;5012945;28;20429;-83
2021/11/13 12:44:10;;;;;;;10.60;8.10;;;6.60;99.90;;;;;;5029784;28;20531;-81
2021/11/13 12:47:16;;;;;;;13.07;7.77;;;6.80;99.90;;;;;;5033465;28;20488;-81
2021/11/13 12:49:49;;;;;;;8.00;7.30;;;6.90;99.90;;;;;;5069496;28;20407;-81
2021/11/13 12:52:22;;;;;;;7.80;6.80;;;6.80;99.90;;;;;;5104312;28;20952;-82
2021/11/13 12:55:10;;;;;;;10.20;8.93;;;6.80;99.90;;;;;;5127867;28;20829;-81